Time;durP1;ratioP1;P1;durP2;ratioP2;P2;SDS_P1;SDS_P2;PMS_P1;PMS_P2;Temp;Humidity;BMP_temperature;BMP_pressure;BME280_temperature;BME280_humidity;BME280_pressure;Samples;Min_cycle;Max_cycle;Signal;HPM_P1;HPM_P2
2021/12/07 00:01:05;;;;;;;8.00;2.92;;;7.20;70.40;;;;;;5033312;28;20022;-73
2021/12/07 00:03:31;;;;;;;5.32;2.80;;;7.20;70.40;;;;;;5015825;28;20389;-75
2021/12/07 00:05:57;;;;;;;5.97;2.75;;;7.20;70.80;;;;;;5033312;28;20025;-71
2021/12/07 00:08:25;;;;;;;7.95;2.92;;;7.20;70.90;;;;;;5033636;28;20040;-69
2021/12/07 00:10:51;;;;;;;5.40;2.50;;;7.20;71.00;;;;;;5033318;28;20032;-72
2021/12/07 00:13:17;;;;;;;6.32;2.55;;;7.20;71.00;;;;;;5033147;28;20045;-71
2021/12/07 00:15:43;;;;;;;5.45;2.67;;;7.10;70.70;;;;;;5033169;28;20025;-70
2021/12/07 00:18:09;;;;;;;5.50;2.72;;;7.10;71.30;;;;;;5015454;28;20033;-69
2021/12/07 00:20:35;;;;;;;5.78;2.63;;;7.10;71.20;;;;;;5015814;28;20037;-70
2021/12/07 00:23:05;;;;;;;5.38;2.63;;;7.10;70.80;;;;;;5033155;28;20087;-70
2021/12/07 00:25:31;;;;;;;5.38;2.88;;;7.10;71.20;;;;;;5015384;28;20403;-69
2021/12/07 00:27:57;;;;;;;8.70;2.60;;;7.10;71.40;;;;;;5033065;28;20029;-70
2021/12/07 00:30:28;;;;;;;7.30;2.80;;;7.10;71.40;;;;;;5032979;28;20469;-69
2021/12/07 00:33:09;;;;;;;6.68;2.47;;;7.10;71.50;;;;;;5033417;28;20037;-70
2021/12/07 00:35:36;;;;;;;5.70;2.67;;;7.10;71.50;;;;;;5033037;28;20025;-70
2021/12/07 00:38:14;;;;;;;5.57;2.75;;;7.10;71.80;;;;;;5033219;28;20485;-70
2021/12/07 00:40:42;;;;;;;5.20;2.60;;;7.10;72.00;;;;;;5033053;28;20045;-71
2021/12/07 00:43:08;;;;;;;4.60;2.47;;;7.10;71.70;;;;;;5032961;28;20147;-70
2021/12/07 00:45:35;;;;;;;6.40;2.55;;;7.10;71.50;;;;;;5033013;28;20506;-71
2021/12/07 00:48:04;;;;;;;5.90;2.67;;;7.10;71.30;;;;;;5033031;28;20108;-72
2021/12/07 00:50:31;;;;;;;4.80;2.67;;;7.10;71.20;;;;;;5015243;28;20080;-70
2021/12/07 00:53:02;;;;;;;5.78;3.08;;;7.10;71.10;;;;;;5015395;28;20026;-71
2021/12/07 00:55:30;;;;;;;4.80;2.88;;;7.10;71.10;;;;;;5032978;28;20040;-70
2021/12/07 00:57:59;;;;;;;6.90;3.08;;;7.10;71.10;;;;;;5033015;28;20022;-70
2021/12/07 01:00:27;;;;;;;5.18;3.08;;;7.10;71.20;;;;;;5033300;28;20350;-71
2021/12/07 01:02:54;;;;;;;5.63;3.17;;;7.10;71.00;;;;;;5033118;28;20117;-70
2021/12/07 01:05:26;;;;;;;6.00;2.58;;;7.10;71.10;;;;;;5033137;28;20021;-69
2021/12/07 01:26:53;;;;;;;6.97;2.67;;;7.10;70.50;;;;;;5036242;28;19916;-70
2021/12/07 01:29:22;;;;;;;6.00;2.50;;;7.10;69.50;;;;;;5018596;28;20053;-70
2021/12/07 01:34:42;;;;;;;5.85;2.58;;;7.10;69.20;;;;;;5036846;28;20033;-70
2021/12/07 01:37:30;;;;;;;5.53;2.97;;;7.10;69.30;;;;;;5035516;28;20116;-69
2021/12/07 01:40:23;;;;;;;6.22;2.40;;;7.10;70.10;;;;;;5023305;28;20033;-69
2021/12/07 01:43:31;;;;;;;5.53;2.53;;;7.10;70.20;;;;;;5036024;28;20045;-69
2021/12/07 02:01:48;;;;;;;7.40;2.72;;;7.00;69.20;;;;;;5035908;28;20453;-70
2021/12/07 02:04:14;;;;;;;4.22;2.40;;;7.00;69.70;;;;;;5035707;28;20022;-69
2021/12/07 02:06:40;;;;;;;6.72;2.40;;;7.00;69.80;;;;;;5017709;28;20021;-70
2021/12/07 02:09:08;;;;;;;4.20;2.28;;;7.00;69.60;;;;;;5035712;28;20504;-70
2021/12/07 02:11:34;;;;;;;4.90;2.50;;;6.90;69.40;;;;;;5035666;28;20440;-69
2021/12/07 02:16:29;;;;;;;4.80;2.67;;;6.90;69.40;;;;;;5035464;28;20112;-70
2021/12/07 02:18:55;;;;;;;6.68;2.55;;;6.90;69.30;;;;;;5035567;28;20136;-70
2021/12/07 02:21:26;;;;;;;4.30;2.30;;;6.90;69.60;;;;;;5035472;28;20033;-68
2021/12/07 02:23:53;;;;;;;5.35;2.78;;;6.90;69.30;;;;;;5035281;28;20046;-69
2021/12/07 02:26:19;;;;;;;4.18;2.28;;;6.80;69.20;;;;;;5035250;28;20025;-70
2021/12/07 02:28:46;;;;;;;5.07;2.40;;;6.80;69.40;;;;;;5034992;28;20088;-70
2021/12/07 02:31:12;;;;;;;5.15;2.70;;;6.80;69.30;;;;;;5017399;28;20120;-69
2021/12/07 02:33:39;;;;;;;6.07;2.63;;;6.80;69.40;;;;;;5035313;28;20034;-69
2021/12/07 02:36:06;;;;;;;5.65;2.58;;;6.80;69.50;;;;;;5035117;28;20045;-69
2021/12/07 02:38:33;;;;;;;5.90;2.40;;;6.80;69.80;;;;;;5017417;28;20382;-69
2021/12/07 02:40:59;;;;;;;5.88;2.40;;;6.80;70.00;;;;;;5034946;28;20076;-69
2021/12/07 02:43:25;;;;;;;6.47;2.40;;;6.70;69.90;;;;;;5034908;28;20041;-70
2021/12/07 02:45:51;;;;;;;4.22;2.78;;;6.70;70.00;;;;;;5035084;28;20029;-71
2021/12/07 02:48:20;;;;;;;3.90;2.30;;;6.70;70.00;;;;;;5034897;28;20398;-71
2021/12/07 02:50:47;;;;;;;6.47;2.60;;;6.70;70.10;;;;;;5035133;28;20378;-70
2021/12/07 02:53:13;;;;;;;6.13;2.20;;;6.60;70.30;;;;;;5034950;28;20104;-70
2021/12/07 02:55:38;;;;;;;5.65;2.38;;;6.60;70.70;;;;;;5034630;28;20109;-69
2021/12/07 02:58:04;;;;;;;5.22;2.50;;;6.60;70.80;;;;;;5034742;28;20025;-70
2021/12/07 03:00:39;;;;;;;5.63;2.42;;;6.60;71.10;;;;;;5034026;28;20095;-71
2021/12/07 03:03:09;;;;;;;4.85;2.40;;;6.60;70.90;;;;;;5016584;28;20486;-70
2021/12/07 03:08:47;;;;;;;6.25;3.53;;;6.50;71.30;;;;;;5034594;28;20503;-70
2021/12/07 03:27:35;;;;;;;;;;;6.40;71.90;;;;;;5034212;28;20036;-70
2021/12/07 03:30:03;;;;;;;4.60;2.45;;;6.40;72.00;;;;;;5034008;28;19929;-69
2021/12/07 03:32:30;;;;;;;6.55;2.60;;;6.40;71.60;;;;;;5034066;28;20025;-71
2021/12/07 03:34:56;;;;;;;6.15;2.60;;;6.40;72.10;;;;;;5016182;28;20079;-73
2021/12/07 03:37:23;;;;;;;6.95;2.85;;;6.40;71.50;;;;;;5033916;28;20494;-71
2021/12/07 03:39:49;;;;;;;4.05;2.50;;;6.40;71.10;;;;;;5034026;28;20033;-70
2021/12/07 03:42:15;;;;;;;6.22;2.53;;;6.40;71.40;;;;;;5033669;28;20037;-69
2021/12/07 03:44:40;;;;;;;5.18;2.58;;;6.30;71.80;;;;;;5033792;28;20025;-69
2021/12/07 03:47:06;;;;;;;4.45;2.50;;;6.30;71.40;;;;;;5033657;28;20025;-70
2021/12/07 03:49:32;;;;;;;6.97;3.22;;;6.30;71.30;;;;;;5033495;28;20421;-70
2021/12/07 03:51:57;;;;;;;5.68;2.63;;;6.30;71.20;;;;;;5033766;28;20021;-70
2021/12/07 03:54:23;;;;;;;5.80;2.30;;;6.30;71.00;;;;;;5033530;28;20030;-70
2021/12/07 03:56:49;;;;;;;5.03;2.40;;;6.30;70.80;;;;;;5033731;28;20025;-69
2021/12/07 03:59:15;;;;;;;5.93;2.33;;;6.30;71.00;;;;;;5033738;28;20029;-69
2021/12/07 04:01:41;;;;;;;8.25;2.70;;;6.30;70.70;;;;;;5033417;28;20040;-70
2021/12/07 04:04:06;;;;;;;4.90;2.30;;;6.30;70.50;;;;;;5015698;28;20033;-70
2021/12/07 04:06:32;;;;;;;5.75;2.08;;;6.30;70.70;;;;;;5033341;28;20039;-75
2021/12/07 04:08:58;;;;;;;5.78;2.08;;;6.30;70.00;;;;;;5033545;28;20064;-71
2021/12/07 04:11:23;;;;;;;4.28;2.03;;;6.30;70.00;;;;;;5015764;28;20466;-70
2021/12/07 04:13:49;;;;;;;3.90;1.88;;;6.30;69.10;;;;;;5033525;28;20072;-71
2021/12/07 04:16:16;;;;;;;3.72;1.98;;;6.30;68.60;;;;;;5033295;28;20021;-69
2021/12/07 04:18:42;;;;;;;3.40;1.92;;;6.30;68.40;;;;;;5033315;28;20478;-70
2021/12/07 04:21:08;;;;;;;4.10;1.70;;;6.30;68.90;;;;;;5033456;28;20071;-71
2021/12/07 04:23:35;;;;;;;8.00;2.17;;;6.30;68.50;;;;;;5033254;28;20037;-70
2021/12/07 04:26:02;;;;;;;3.38;1.70;;;6.30;68.80;;;;;;5033070;28;20079;-72
2021/12/07 04:28:28;;;;;;;4.30;2.03;;;6.30;68.40;;;;;;5033207;28;20025;-71
2021/12/07 04:30:54;;;;;;;7.00;2.05;;;6.30;68.90;;;;;;4998751;28;20439;-69
2021/12/07 04:33:20;;;;;;;4.30;2.05;;;6.20;69.00;;;;;;5033209;28;20173;-69
2021/12/07 04:35:48;;;;;;;6.65;1.80;;;6.20;69.30;;;;;;5033160;28;20034;-70
2021/12/07 04:38:15;;;;;;;3.72;1.85;;;6.20;68.70;;;;;;5033168;28;20030;-72
2021/12/07 04:40:41;;;;;;;4.45;2.22;;;6.20;68.90;;;;;;5015337;28;20033;-72
2021/12/07 04:43:07;;;;;;;5.72;2.15;;;6.20;69.10;;;;;;5033002;28;20037;-70
2021/12/07 04:46:05;;;;;;;5.25;2.22;;;6.10;69.20;;;;;;5032939;28;20411;-71
2021/12/07 04:48:31;;;;;;;4.05;1.80;;;6.10;69.20;;;;;;5032645;28;20036;-70
2021/12/07 04:59:11;;;;;;;3.33;1.80;;;6.10;69.30;;;;;;5032650;28;20128;-70
2021/12/07 05:01:37;;;;;;;4.85;1.80;;;6.10;69.60;;;;;;5036245;28;20025;-69
2021/12/07 05:04:11;;;;;;;5.78;2.60;;;6.00;69.30;;;;;;5036674;28;20057;-71
2021/12/07 05:06:44;;;;;;;5.88;2.50;;;6.00;69.40;;;;;;5018892;28;20025;-69
2021/12/07 05:09:33;;;;;;;6.15;2.20;;;6.00;69.50;;;;;;5036772;28;20079;-70
2021/12/07 05:14:32;;;;;;;5.72;1.95;;;6.00;69.90;;;;;;5036603;28;20029;-73
2021/12/07 05:38:25;;;;;;;5.45;2.17;;;6.00;70.90;;;;;;5036395;28;19912;-71
2021/12/07 05:40:51;;;;;;;3.90;2.10;;;6.00;70.40;;;;;;5037908;28;20017;-73
2021/12/07 05:43:18;;;;;;;7.68;2.13;;;6.00;70.50;;;;;;5036680;28;20045;-77
2021/12/07 05:45:44;;;;;;;6.68;1.90;;;6.00;70.60;;;;;;5019822;28;20025;-72
2021/12/07 05:48:09;;;;;;;4.60;2.10;;;6.00;70.60;;;;;;5037038;28;20026;-74
2021/12/07 05:50:39;;;;;;;6.53;2.80;;;6.10;70.50;;;;;;5036149;28;20033;-72
2021/12/07 05:53:06;;;;;;;6.28;2.40;;;6.10;70.00;;;;;;5035763;28;20037;-73
2021/12/07 05:55:32;;;;;;;5.57;2.95;;;6.10;70.20;;;;;;5035877;28;20062;-73
2021/12/07 05:57:59;;;;;;;6.63;2.70;;;6.10;70.30;;;;;;5036431;28;20037;-73
2021/12/07 06:00:27;;;;;;;7.68;2.70;;;6.00;70.30;;;;;;5035953;28;20032;-72
2021/12/07 06:02:58;;;;;;;5.30;2.50;;;6.00;70.30;;;;;;5035410;28;20500;-70
2021/12/07 06:05:28;;;;;;;7.30;2.60;;;6.00;69.80;;;;;;5035600;28;20025;-69
2021/12/07 06:07:54;;;;;;;5.30;2.25;;;6.00;70.60;;;;;;5035528;28;20053;-70
2021/12/07 06:10:20;;;;;;;4.65;2.10;;;6.00;70.30;;;;;;5035714;28;20107;-75
2021/12/07 06:12:46;;;;;;;4.80;2.50;;;5.90;70.60;;;;;;5035388;28;20025;-76
2021/12/07 06:15:14;;;;;;;6.80;2.35;;;5.90;70.60;;;;;;5035714;28;20037;-70
2021/12/07 06:17:40;;;;;;;5.57;2.50;;;5.90;70.70;;;;;;5035122;28;20107;-69
2021/12/07 06:20:07;;;;;;;6.55;2.80;;;5.90;70.80;;;;;;5035164;28;20076;-73
2021/12/07 06:22:34;;;;;;;5.60;2.75;;;5.90;71.40;;;;;;5035372;28;20048;-69
2021/12/07 06:25:00;;;;;;;5.07;2.72;;;6.00;71.90;;;;;;5035935;28;20026;-72
2021/12/07 06:27:26;;;;;;;4.47;2.70;;;5.90;70.80;;;;;;5035241;28;20039;-74
2021/12/07 06:29:52;;;;;;;6.50;2.40;;;5.90;70.70;;;;;;5035023;28;20445;-73
2021/12/07 06:32:17;;;;;;;5.82;2.50;;;5.80;70.50;;;;;;5017333;28;20540;-70
2021/12/07 06:34:43;;;;;;;5.75;3.20;;;5.90;71.20;;;;;;5035003;28;20076;-70
2021/12/07 06:37:09;;;;;;;5.55;3.15;;;5.90;70.90;;;;;;5034831;28;20084;-70
2021/12/07 06:39:35;;;;;;;10.55;2.78;;;6.00;71.10;;;;;;5034689;28;20386;-72
2021/12/07 06:42:01;;;;;;;6.82;2.80;;;6.00;71.00;;;;;;5034867;28;20034;-71
2021/12/07 06:44:27;;;;;;;5.47;2.30;;;6.00;70.90;;;;;;5034710;28;20051;-69
2021/12/07 06:46:53;;;;;;;10.18;2.80;;;6.00;70.50;;;;;;5034639;28;20498;-71
2021/12/07 06:49:20;;;;;;;5.45;2.75;;;6.10;70.70;;;;;;5034893;28;20482;-73
2021/12/07 06:51:46;;;;;;;6.60;3.10;;;6.10;70.30;;;;;;5034469;28;20040;-69
2021/12/07 06:54:13;;;;;;;7.53;3.03;;;6.20;70.60;;;;;;5034755;28;20029;-71
2021/12/07 06:56:38;;;;;;;5.35;2.72;;;6.20;70.40;;;;;;5034513;28;20044;-70
2021/12/07 06:59:05;;;;;;;6.85;2.53;;;6.30;69.80;;;;;;5034437;28;20470;-71
2021/12/07 07:01:32;;;;;;;6.32;3.10;;;6.40;69.80;;;;;;5034231;28;20029;-71
2021/12/07 07:03:59;;;;;;;7.22;3.45;;;6.50;69.50;;;;;;5034208;28;20041;-72
2021/12/07 07:06:25;;;;;;;7.93;3.22;;;6.50;69.40;;;;;;5034332;28;20033;-70
2021/12/07 07:08:50;;;;;;;6.20;3.17;;;6.60;69.30;;;;;;5034398;28;20470;-72
2021/12/07 07:11:18;;;;;;;9.55;3.63;;;6.70;69.90;;;;;;5034338;28;20030;-71
2021/12/07 07:13:45;;;;;;;6.90;3.20;;;6.80;69.50;;;;;;5016205;28;20032;-70
2021/12/07 07:16:11;;;;;;;6.80;2.92;;;6.80;69.00;;;;;;5034025;28;20025;-70
2021/12/07 07:18:36;;;;;;;8.75;3.22;;;6.90;68.70;;;;;;5033958;28;20102;-70
2021/12/07 07:21:03;;;;;;;12.30;3.47;;;6.80;68.50;;;;;;5033781;28;20510;-71
2021/12/07 07:23:29;;;;;;;9.20;3.50;;;6.80;68.70;;;;;;5032734;28;20438;-70
2021/12/07 07:25:55;;;;;;;12.27;3.58;;;6.80;69.50;;;;;;5033561;28;20025;-72
2021/12/07 07:28:26;;;;;;;11.88;4.78;;;6.80;69.40;;;;;;5033740;28;20064;-71
2021/12/07 07:30:52;;;;;;;10.73;3.70;;;6.70;68.90;;;;;;5033410;28;20038;-69
2021/12/07 07:33:18;;;;;;;14.52;4.00;;;6.80;69.10;;;;;;5033428;28;20074;-71
2021/12/07 07:35:44;;;;;;;14.73;4.07;;;6.80;69.20;;;;;;5015343;28;20024;-70
2021/12/07 07:38:09;;;;;;;11.38;3.65;;;6.90;69.10;;;;;;5033039;28;20028;-70
2021/12/07 07:40:35;;;;;;;8.77;3.67;;;6.90;68.60;;;;;;5033180;28;20513;-69
2021/12/07 07:43:01;;;;;;;8.27;3.75;;;6.90;68.40;;;;;;5015493;28;20391;-70
2021/12/07 07:45:26;;;;;;;5.68;3.22;;;6.90;68.50;;;;;;5032883;28;20047;-70
2021/12/07 07:47:52;;;;;;;8.60;3.50;;;6.90;68.40;;;;;;5015573;28;20021;-70
2021/12/07 07:50:18;;;;;;;8.23;3.40;;;6.80;68.10;;;;;;5033092;28;20030;-70
2021/12/07 07:52:46;;;;;;;8.52;3.15;;;6.80;68.10;;;;;;5032937;28;20021;-71
2021/12/07 07:55:14;;;;;;;5.03;2.92;;;6.70;67.70;;;;;;5032870;28;20104;-70
2021/12/07 07:57:40;;;;;;;9.10;3.63;;;6.70;67.40;;;;;;5033073;28;20091;-69
2021/12/07 08:00:10;;;;;;;8.85;3.40;;;6.70;67.60;;;;;;5032980;28;20021;-69
2021/12/07 08:02:35;;;;;;;6.63;3.15;;;6.70;68.00;;;;;;5033542;28;20187;-70
2021/12/07 08:05:01;;;;;;;8.77;3.30;;;6.70;67.70;;;;;;5033097;28;20379;-71
2021/12/07 08:07:27;;;;;;;9.73;4.05;;;6.60;67.60;;;;;;5032572;28;20029;-71
2021/12/07 08:09:53;;;;;;;17.40;3.88;;;6.60;67.50;;;;;;5015192;28;20132;-71
2021/12/07 08:12:19;;;;;;;69.78;9.57;;;6.60;67.50;;;;;;5033045;28;20020;-71
2021/12/07 08:14:44;;;;;;;29.05;5.28;;;6.60;67.80;;;;;;5032881;28;20014;-71
2021/12/07 08:17:10;;;;;;;10.82;4.10;;;6.60;67.70;;;;;;5032567;28;20029;-71
2021/12/07 08:19:36;;;;;;;11.50;4.20;;;6.60;67.60;;;;;;5032607;28;20323;-72
2021/12/07 08:22:02;;;;;;;9.50;3.80;;;6.60;67.60;;;;;;5032596;28;20116;-71
2021/12/07 08:24:28;;;;;;;12.80;4.47;;;6.60;67.80;;;;;;5032655;28;20047;-71
2021/12/07 08:26:55;;;;;;;12.85;4.32;;;6.70;67.90;;;;;;5032445;28;20026;-70
2021/12/07 08:29:22;;;;;;;9.85;3.88;;;6.80;69.10;;;;;;5032230;28;20045;-70
2021/12/07 08:31:48;;;;;;;5.70;3.42;;;6.90;67.80;;;;;;5032595;28;20025;-69
2021/12/07 08:34:13;;;;;;;8.80;3.83;;;6.90;67.80;;;;;;5016736;28;20454;-70
2021/12/07 08:36:39;;;;;;;9.32;3.60;;;7.00;67.00;;;;;;5039063;28;20026;-70
2021/12/07 08:39:06;;;;;;;8.95;3.80;;;7.00;67.10;;;;;;5021574;28;20029;-71
2021/12/07 08:41:32;;;;;;;9.07;3.55;;;7.00;66.80;;;;;;5039183;28;20032;-71
2021/12/07 08:43:58;;;;;;;10.50;4.30;;;7.10;66.90;;;;;;5038921;28;20385;-69
2021/12/07 08:46:24;;;;;;;13.98;4.72;;;7.20;67.20;;;;;;5021002;28;20029;-71
2021/12/07 08:48:52;;;;;;;13.02;5.57;;;7.20;66.70;;;;;;5039365;28;20080;-72
2021/12/07 08:51:18;;;;;;;11.45;4.43;;;7.30;66.60;;;;;;5039172;28;20025;-72
2021/12/07 08:53:52;;;;;;;8.18;4.55;;;7.40;66.70;;;;;;5039185;28;20482;-71
2021/12/07 09:01:47;;;;;;;7.43;3.63;;;7.60;65.90;;;;;;5038983;28;20007;-71
2021/12/07 09:04:17;;;;;;;7.35;4.03;;;7.60;66.70;;;;;;5038926;28;20120;-70
2021/12/07 09:06:44;;;;;;;9.85;4.07;;;7.60;66.10;;;;;;5038548;28;20483;-70
2021/12/07 09:09:10;;;;;;;74.35;10.60;;;7.70;66.10;;;;;;5038800;28;20033;-71
2021/12/07 09:11:36;;;;;;;26.85;6.75;;;7.70;66.20;;;;;;5039113;28;20022;-70
2021/12/07 09:14:02;;;;;;;12.02;4.28;;;7.80;66.20;;;;;;5038758;28;20036;-70
2021/12/07 09:16:28;;;;;;;15.73;5.63;;;7.90;65.60;;;;;;5038363;28;20442;-72
2021/12/07 09:18:54;;;;;;;10.95;4.65;;;8.00;65.60;;;;;;5038643;28;20025;-71
2021/12/07 09:21:20;;;;;;;6.95;4.40;;;8.10;65.20;;;;;;5038497;28;20478;-71
2021/12/07 09:23:46;;;;;;;10.35;4.18;;;8.10;64.90;;;;;;5038887;28;20076;-70
2021/12/07 09:26:13;;;;;;;9.65;5.00;;;8.20;64.50;;;;;;5038525;28;20025;-71
2021/12/07 09:28:41;;;;;;;9.98;4.10;;;8.30;65.00;;;;;;5020707;28;20041;-70
2021/12/07 09:31:08;;;;;;;10.50;4.40;;;8.30;64.50;;;;;;5038345;28;20060;-70
2021/12/07 09:33:35;;;;;;;12.73;4.03;;;8.40;64.00;;;;;;5038498;28;20063;-72
2021/12/07 09:36:04;;;;;;;13.05;4.70;;;8.40;63.90;;;;;;5037991;28;20037;-70
2021/12/07 09:38:29;;;;;;;8.63;3.40;;;8.50;63.60;;;;;;5038318;28;20055;-71
2021/12/07 09:40:55;;;;;;;9.02;3.67;;;8.60;63.40;;;;;;5020595;28;20037;-73
2021/12/07 09:43:21;;;;;;;9.88;3.63;;;8.60;63.00;;;;;;5038695;28;20043;-69
2021/12/07 09:45:48;;;;;;;7.90;3.08;;;8.70;62.50;;;;;;5036550;28;20030;-70
2021/12/07 09:48:16;;;;;;;7.47;3.60;;;8.70;62.30;;;;;;5018212;28;20029;-72
2021/12/07 09:50:47;;;;;;;6.72;3.53;;;8.80;61.90;;;;;;5017580;28;20025;-72
2021/12/07 09:53:14;;;;;;;8.13;3.90;;;8.90;61.50;;;;;;5017351;28;20124;-75
2021/12/07 09:55:42;;;;;;;7.85;3.95;;;9.00;61.80;;;;;;5034972;28;20038;-76
2021/12/07 09:58:08;;;;;;;8.18;3.08;;;9.10;61.20;;;;;;5017782;28;20434;-75
2021/12/07 10:00:38;;;;;;;5.65;3.03;;;9.20;60.30;;;;;;5035152;28;20071;-73
2021/12/07 10:03:05;;;;;;;8.05;3.75;;;9.30;59.70;;;;;;5034909;28;20118;-78
2021/12/07 10:05:34;;;;;;;6.95;3.17;;;9.40;59.80;;;;;;5034658;28;20463;-78
2021/12/07 10:08:03;;;;;;;5.72;3.00;;;9.50;58.30;;;;;;5035089;28;20091;-75
2021/12/07 10:10:35;;;;;;;5.82;2.78;;;9.60;57.90;;;;;;5034837;28;20021;-72
2021/12/07 10:13:02;;;;;;;6.43;2.63;;;9.70;58.30;;;;;;5034941;28;20026;-73
2021/12/07 10:15:29;;;;;;;6.97;2.90;;;9.80;56.50;;;;;;5034941;28;20021;-76
2021/12/07 10:18:07;;;;;;;4.97;2.55;;;9.80;55.70;;;;;;5035403;28;20482;-76
2021/12/07 10:20:41;;;;;;;20.85;3.95;;;9.90;56.40;;;;;;5017993;28;20086;-73
2021/12/07 10:23:16;;;;;;;38.47;5.80;;;9.90;55.30;;;;;;5034253;28;20120;-72
2021/12/07 10:25:46;;;;;;;35.85;5.93;;;10.10;54.00;;;;;;5034098;28;20358;-71
2021/12/07 10:28:32;;;;;;;32.20;4.10;;;10.30;54.20;;;;;;5034169;28;20061;-74
2021/12/07 10:31:04;;;;;;;14.82;3.72;;;10.40;55.70;;;;;;5034036;28;20068;-72
2021/12/07 10:33:34;;;;;;;14.13;3.80;;;10.50;54.10;;;;;;5016299;28;20432;-72
2021/12/07 10:36:19;;;;;;;12.70;3.25;;;10.60;54.30;;;;;;5016427;28;20039;-72
2021/12/07 10:39:16;;;;;;;50.45;6.15;;;10.70;54.10;;;;;;5018114;28;20029;-75
2021/12/07 10:41:48;;;;;;;6.90;3.00;;;10.70;53.80;;;;;;5029034;28;20040;-77
2021/12/07 10:44:21;;;;;;;5.28;2.70;;;10.70;53.40;;;;;;5034490;28;20075;-79
2021/12/07 10:46:52;;;;;;;6.33;3.30;;;10.70;52.00;;;;;;5016307;28;20026;-75
2021/12/07 10:49:38;;;;;;;7.85;2.60;;;10.80;51.90;;;;;;5034428;28;20419;-70
2021/12/07 10:52:09;;;;;;;6.82;2.40;;;10.80;51.60;;;;;;5015816;28;20505;-72
2021/12/07 10:54:55;;;;;;;5.97;2.40;;;10.80;50.70;;;;;;5033805;28;20497;-74
2021/12/07 10:57:38;;;;;;;6.55;2.40;;;10.90;51.30;;;;;;5015057;28;20064;-76
2021/12/07 11:00:15;;;;;;;7.60;3.20;;;11.10;51.30;;;;;;5033995;28;20029;-77
2021/12/07 11:02:45;;;;;;;7.10;2.75;;;11.40;51.10;;;;;;5033829;28;20367;-72
2021/12/07 11:05:16;;;;;;;7.45;3.50;;;11.60;50.40;;;;;;5033578;28;20026;-72
2021/12/07 11:07:42;;;;;;;6.15;2.40;;;11.80;50.20;;;;;;5033276;28;20332;-75
2021/12/07 11:10:29;;;;;;;6.47;2.92;;;11.90;49.60;;;;;;5015477;28;20026;-70
2021/12/07 11:13:18;;;;;;;9.88;3.15;;;11.90;49.00;;;;;;5033525;28;20029;-70
2021/12/07 11:15:53;;;;;;;9.73;3.08;;;12.00;49.10;;;;;;5033295;28;20037;-72
2021/12/07 11:18:28;;;;;;;7.63;3.00;;;12.00;47.10;;;;;;5033439;28;20101;-71
2021/12/07 11:21:16;;;;;;;9.85;3.17;;;12.00;48.70;;;;;;5034478;28;20033;-72
2021/12/07 11:23:55;;;;;;;10.02;2.78;;;11.90;47.40;;;;;;5034215;28;20167;-74
2021/12/07 11:31:49;;;;;;;6.43;2.30;;;11.90;45.90;;;;;;5033356;28;20115;-72
2021/12/07 11:34:25;;;;;;;19.37;2.40;;;11.90;44.30;;;;;;5033043;28;20034;-71
2021/12/07 11:36:58;;;;;;;9.07;1.85;;;12.00;44.80;;;;;;5015204;28;20260;-71
2021/12/07 11:40:06;;;;;;;4.68;1.60;;;12.10;43.90;;;;;;5033220;28;20378;-71
2021/12/07 11:58:47;;;;;;;5.80;2.00;;;12.00;39.40;;;;;;5091700;27;1326941;-72
2021/12/07 12:01:12;;;;;;;3.83;1.60;;;12.20;39.20;;;;;;5130848;27;20491;-72
2021/12/07 12:03:38;;;;;;;4.40;1.58;;;12.20;39.40;;;;;;5130853;28;20027;-72
2021/12/07 12:06:05;;;;;;;3.40;1.70;;;12.10;39.80;;;;;;5130405;28;20030;-71
2021/12/07 12:08:31;;;;;;;2.65;1.42;;;12.10;39.50;;;;;;5129954;27;20122;-71
2021/12/07 12:11:15;;;;;;;5.45;2.53;;;12.10;39.60;;;;;;5130230;27;20019;-72
2021/12/07 12:14:02;;;;;;;5.13;2.03;;;12.00;39.10;;;;;;5130353;27;20027;-71
2021/12/07 12:16:34;;;;;;;4.15;1.90;;;12.00;39.10;;;;;;5129963;28;20019;-71
2021/12/07 12:19:21;;;;;;;3.78;1.73;;;12.10;39.70;;;;;;5128900;27;20042;-70
2021/12/07 12:22:00;;;;;;;5.93;1.80;;;12.20;39.30;;;;;;5129701;27;20024;-71
2021/12/07 12:24:50;;;;;;;3.40;1.50;;;12.30;38.80;;;;;;5129873;27;20117;-71
2021/12/07 12:27:19;;;;;;;3.35;1.48;;;12.40;39.10;;;;;;5129889;27;20047;-71
2021/12/07 12:29:49;;;;;;;4.25;2.08;;;12.60;39.40;;;;;;5129823;27;20019;-72
2021/12/07 12:32:29;;;;;;;4.43;1.75;;;12.70;39.40;;;;;;5129908;27;20362;-71
2021/12/07 12:34:57;;;;;;;3.35;1.45;;;12.70;38.90;;;;;;5129723;27;20502;-71
2021/12/07 12:37:27;;;;;;;5.53;2.17;;;12.80;39.40;;;;;;5129928;27;20545;-71
2021/12/07 12:39:57;;;;;;;4.80;1.85;;;12.90;39.30;;;;;;5129825;27;20080;-72
2021/12/07 12:42:41;;;;;;;4.35;1.80;;;13.00;39.70;;;;;;5129536;28;20015;-72
2021/12/07 12:45:09;;;;;;;;;;;13.00;39.30;;;;;;5129838;27;20073;-71
2021/12/07 12:47:39;;;;;;;4.82;2.15;;;13.00;37.90;;;;;;5129395;27;19912;-72
2021/12/07 12:50:12;;;;;;;4.28;1.73;;;12.90;39.80;;;;;;5129671;27;20022;-72
2021/12/07 12:52:40;;;;;;;;;;;12.90;39.80;;;;;;5129558;27;20525;-72
2021/12/07 12:55:24;;;;;;;5.82;1.88;;;12.90;38.20;;;;;;5129371;27;19904;-72
2021/12/07 12:57:51;;;;;;;5.28;1.90;;;13.00;39.70;;;;;;5126028;27;20123;-71
2021/12/07 13:00:17;;;;;;;5.00;2.28;;;13.00;39.50;;;;;;5115721;28;20084;-70
2021/12/07 13:02:50;;;;;;;6.30;3.67;;;13.00;39.80;;;;;;5115661;28;20481;-70
2021/12/07 13:05:18;;;;;;;8.73;3.00;;;12.90;39.00;;;;;;5115514;28;20027;-70
2021/12/07 13:07:45;;;;;;;6.93;2.42;;;12.90;39.50;;;;;;5115509;28;20111;-71
2021/12/07 13:10:11;;;;;;;5.47;2.45;;;13.00;39.70;;;;;;5115991;28;20031;-70
2021/12/07 13:12:38;;;;;;;5.15;2.55;;;13.00;39.10;;;;;;5115621;28;20027;-71
2021/12/07 13:15:15;;;;;;;6.80;2.20;;;13.00;39.70;;;;;;5115323;28;20106;-71
2021/12/07 13:17:48;;;;;;;5.63;2.25;;;13.00;39.30;;;;;;5115304;28;20026;-71
2021/12/07 13:20:29;;;;;;;5.60;2.55;;;13.00;39.70;;;;;;5115560;28;20024;-71
2021/12/07 13:23:00;;;;;;;6.07;3.13;;;13.00;39.40;;;;;;5115743;28;20422;-72
2021/12/07 13:25:34;;;;;;;11.52;2.65;;;13.00;39.50;;;;;;5115571;28;20047;-72
2021/12/07 13:28:04;;;;;;;5.38;2.55;;;13.10;39.90;;;;;;5115210;28;20060;-71
2021/12/07 13:30:45;;;;;;;5.38;2.33;;;13.10;40.20;;;;;;5115155;28;20466;-71
2021/12/07 13:33:29;;;;;;;5.82;2.28;;;13.10;40.10;;;;;;5115277;28;20032;-71
2021/12/07 13:35:55;;;;;;;4.53;1.90;;;13.10;39.90;;;;;;5115024;28;20032;-72
2021/12/07 13:38:30;;;;;;;12.63;2.85;;;13.20;39.80;;;;;;5114953;28;20122;-71
2021/12/07 13:41:14;;;;;;;6.20;1.90;;;13.20;39.40;;;;;;5115184;27;20482;-70
2021/12/07 13:43:46;;;;;;;4.53;1.80;;;13.30;39.40;;;;;;5114888;28;20027;-71
2021/12/07 13:46:17;;;;;;;8.55;2.20;;;13.30;38.80;;;;;;5115052;28;20024;-72
2021/12/07 13:48:45;;;;;;;4.65;2.15;;;13.40;38.40;;;;;;5114903;28;20106;-72
2021/12/07 13:51:12;;;;;;;6.07;2.22;;;13.60;38.10;;;;;;5114743;28;20112;-71
2021/12/07 13:53:41;;;;;;;3.50;1.50;;;13.90;37.40;;;;;;5114904;28;20483;-71
2021/12/07 13:56:08;;;;;;;4.57;1.73;;;14.10;36.60;;;;;;5115256;28;20365;-72
2021/12/07 13:58:57;;;;;;;4.50;1.80;;;14.30;36.70;;;;;;5114479;28;20120;-74
2021/12/07 14:01:28;;;;;;;8.23;1.90;;;14.40;34.40;;;;;;5113202;28;20028;-71
2021/12/07 14:03:56;;;;;;;3.75;1.40;;;14.20;36.50;;;;;;5114428;28;20024;-72
2021/12/07 14:06:22;;;;;;;4.35;1.80;;;14.00;36.50;;;;;;5114276;28;20136;-70
2021/12/07 14:08:49;;;;;;;6.15;1.80;;;13.70;36.10;;;;;;5114392;28;20031;-72
2021/12/07 14:11:17;;;;;;;5.30;1.52;;;13.50;36.30;;;;;;5113535;28;20106;-72
2021/12/07 14:13:46;;;;;;;9.00;1.85;;;13.40;36.70;;;;;;5114479;28;20586;-71
2021/12/07 14:16:15;;;;;;;5.38;1.85;;;13.20;36.80;;;;;;5114280;28;20019;-72
2021/12/07 14:18:45;;;;;;;5.53;1.88;;;13.20;37.10;;;;;;5113936;28;20061;-72
2021/12/07 14:21:12;;;;;;;4.97;1.48;;;13.10;37.30;;;;;;5114178;28;20019;-71
2021/12/07 14:23:44;;;;;;;2.83;1.40;;;13.00;37.10;;;;;;5113941;28;20031;-72
2021/12/07 14:26:17;;;;;;;3.22;1.38;;;13.00;37.60;;;;;;5113738;28;20103;-71
2021/12/07 14:28:53;;;;;;;3.33;1.55;;;12.90;37.30;;;;;;5113758;28;20031;-72
2021/12/07 14:31:22;;;;;;;8.00;1.98;;;12.90;36.80;;;;;;5114429;28;20117;-72
2021/12/07 14:34:00;;;;;;;3.58;2.05;;;12.80;36.80;;;;;;5113945;28;20023;-72
2021/12/07 14:36:31;;;;;;;4.38;1.75;;;12.80;36.80;;;;;;5114006;27;20016;-72
2021/12/07 14:39:00;;;;;;;3.60;1.80;;;12.70;37.30;;;;;;5112226;28;20035;-73
2021/12/07 14:41:27;;;;;;;6.30;1.90;;;12.70;36.90;;;;;;5113907;28;20023;-70
2021/12/07 14:43:54;;;;;;;4.95;1.90;;;12.60;37.10;;;;;;5114275;28;20019;-72
2021/12/07 14:46:22;;;;;;;5.43;1.67;;;12.60;37.20;;;;;;5113866;27;20065;-72
2021/12/07 14:48:49;;;;;;;4.03;1.88;;;12.60;37.80;;;;;;5113541;28;20019;-72
2021/12/07 14:51:20;;;;;;;3.88;1.80;;;12.50;37.80;;;;;;5113884;28;20329;-71
2021/12/07 14:53:49;;;;;;;4.57;2.10;;;12.50;38.10;;;;;;5112195;28;20080;-72
2021/12/07 14:56:17;;;;;;;5.90;2.22;;;12.40;38.10;;;;;;5113804;28;20480;-71
2021/12/07 14:58:44;;;;;;;7.40;2.08;;;12.40;37.90;;;;;;5113110;27;20051;-72
2021/12/07 15:01:14;;;;;;;5.40;1.80;;;12.30;37.90;;;;;;5113437;28;20039;-72
2021/12/07 15:03:44;;;;;;;4.13;1.60;;;12.30;37.70;;;;;;5113735;28;20114;-73